Time;durP1;ratioP1;P1;durP2;ratioP2;P2;SDS_P1;SDS_P2;PMS_P1;PMS_P2;Temp;Humidity;BMP_temperature;BMP_pressure;BME280_temperature;BME280_humidity;BME280_pressure;Samples;Min_cycle;Max_cycle;Signal;HPM_P1;HPM_P2
2023/05/16 00:02:49;;;;;;;5.43;3.83;;;15.20;40.70;;;;;;10489845;28;20256;-72
2023/05/16 00:07:54;;;;;;;4.60;4.17;;;15.20;40.90;;;;;;10489651;28;20325;-72
2023/05/16 00:13:00;;;;;;;5.87;3.93;;;15.30;41.10;;;;;;10491631;28;20732;-72
2023/05/16 00:18:05;;;;;;;4.07;3.77;;;15.20;40.70;;;;;;10483455;28;20215;-75
2023/05/16 00:23:10;;;;;;;5.53;4.50;;;15.40;41.00;;;;;;10491055;28;20265;-75
2023/05/16 00:28:13;;;;;;;5.07;3.73;;;15.40;41.10;;;;;;10500705;28;20225;-77
2023/05/16 00:33:19;;;;;;;4.77;4.37;;;15.40;40.60;;;;;;10498802;28;20753;-77
2023/05/16 00:38:25;;;;;;;4.17;3.77;;;15.40;40.90;;;;;;10495385;28;20243;-77
2023/05/16 00:43:28;;;;;;;4.43;4.13;;;15.40;41.10;;;;;;10501379;28;20644;-76
2023/05/16 00:48:32;;;;;;;4.23;4.00;;;15.40;40.90;;;;;;10496538;28;20227;-73
2023/05/16 00:53:37;;;;;;;4.63;4.33;;;15.40;40.70;;;;;;10492226;28;20894;-73
2023/05/16 00:58:41;;;;;;;4.07;3.77;;;15.40;41.00;;;;;;10489522;28;20228;-73
2023/05/16 01:03:45;;;;;;;4.40;4.10;;;15.40;40.80;;;;;;10494204;28;20278;-73
2023/05/16 01:08:51;;;;;;;4.73;4.40;;;15.40;40.90;;;;;;10489235;28;20681;-71
2023/05/16 01:14:07;;;;;;;4.97;4.67;;;15.40;41.00;;;;;;10480191;28;20310;-72
2023/05/16 01:19:24;;;;;;;4.70;4.40;;;15.40;41.50;;;;;;10440871;28;20331;-76
2023/05/16 01:24:34;;;;;;;5.10;4.63;;;15.40;41.40;;;;;;10445287;28;20778;-71
2023/05/16 01:29:39;;;;;;;5.90;5.30;;;15.50;41.60;;;;;;10445278;28;20221;-72
2023/05/16 01:34:42;;;;;;;5.30;5.00;;;15.50;41.10;;;;;;10448526;28;20232;-73
2023/05/16 01:39:52;;;;;;;4.50;4.03;;;15.40;40.60;;;;;;10452027;28;20231;-73
2023/05/16 01:45:04;;;;;;;5.40;5.00;;;15.40;41.00;;;;;;10448220;28;20232;-73
2023/05/16 01:50:16;;;;;;;5.57;5.17;;;15.30;41.30;;;;;;10448085;28;20715;-79
2023/05/16 01:55:26;;;;;;;5.17;4.77;;;15.30;41.20;;;;;;10448286;28;20228;-79
2023/05/16 02:00:34;;;;;;;6.10;5.60;;;15.30;41.10;;;;;;10455691;28;20340;-76
2023/05/16 02:05:37;;;;;;;5.60;5.10;;;15.30;41.20;;;;;;10454886;28;20766;-76
2023/05/16 02:10:40;;;;;;;5.83;5.43;;;15.20;40.90;;;;;;10458638;28;20749;-76
2023/05/16 02:15:45;;;;;;;5.63;5.23;;;15.20;40.90;;;;;;10451998;28;20224;-76
2023/05/16 02:20:48;;;;;;;5.93;5.53;;;15.20;41.30;;;;;;10456533;28;20217;-77
2023/05/16 02:25:52;;;;;;;5.93;5.53;;;15.20;41.10;;;;;;10455583;28;20231;-77
2023/05/16 02:31:02;;;;;;;6.40;5.90;;;15.10;41.00;;;;;;10457945;28;20304;-77
2023/05/16 02:36:05;;;;;;;5.80;5.40;;;15.10;41.50;;;;;;10408377;28;20222;-74
2023/05/16 02:41:09;;;;;;;5.97;5.27;;;15.10;41.10;;;;;;10408699;28;20222;-74
2023/05/16 02:46:30;;;;;;;5.53;5.07;;;15.00;41.10;;;;;;10413466;28;20312;-79
2023/05/16 02:51:34;;;;;;;5.73;5.33;;;15.00;41.90;;;;;;10413843;28;20229;-76
2023/05/16 02:56:37;;;;;;;5.90;5.50;;;15.10;41.50;;;;;;10417466;28;20248;-71
2023/05/16 03:01:42;;;;;;;6.37;5.87;;;15.00;41.50;;;;;;10407674;28;20237;-71
2023/05/16 03:06:45;;;;;;;6.57;5.97;;;15.00;41.60;;;;;;10406140;28;20213;-71
2023/05/16 03:11:55;;;;;;;6.73;6.23;;;15.00;41.30;;;;;;10409402;28;20234;-71
2023/05/16 03:17:00;;;;;;;4.63;4.33;;;15.00;41.90;;;;;;10408903;28;20312;-71
2023/05/16 03:22:04;;;;;;;6.33;5.90;;;15.00;41.70;;;;;;10428567;28;20929;-71
2023/05/16 03:27:08;;;;;;;6.63;6.13;;;15.00;41.60;;;;;;10426416;28;20236;-71
2023/05/16 03:32:14;;;;;;;5.90;5.50;;;15.00;41.50;;;;;;10422298;28;20228;-71
2023/05/16 03:37:17;;;;;;;6.00;5.50;;;15.00;41.90;;;;;;10423788;28;20287;-71
2023/05/16 03:42:20;;;;;;;7.60;7.00;;;15.00;41.70;;;;;;10402204;28;20561;-71
2023/05/16 03:47:25;;;;;;;6.93;6.43;;;15.00;41.70;;;;;;10400304;28;20225;-71
2023/05/16 03:52:29;;;;;;;7.70;7.00;;;15.00;41.90;;;;;;10404146;28;20959;-72
2023/05/16 03:57:33;;;;;;;6.67;6.00;;;15.00;41.70;;;;;;10406282;28;20249;-70
2023/05/16 04:02:40;;;;;;;6.60;5.40;;;15.00;41.60;;;;;;10409498;28;20233;-71
2023/05/16 04:07:44;;;;;;;5.33;4.93;;;15.00;41.90;;;;;;10402939;28;20319;-72
2023/05/16 04:12:47;;;;;;;5.83;5.40;;;15.00;41.80;;;;;;10411577;28;20230;-71
2023/05/16 04:17:52;;;;;;;6.40;5.90;;;15.00;42.00;;;;;;10402758;28;20224;-71
2023/05/16 04:22:55;;;;;;;6.83;6.33;;;15.10;42.40;;;;;;10406835;28;20329;-71
2023/05/16 04:27:58;;;;;;;6.97;6.43;;;15.10;41.80;;;;;;10398740;28;20279;-72
2023/05/16 04:33:04;;;;;;;7.40;6.80;;;15.10;41.50;;;;;;10392768;28;20722;-78
2023/05/16 04:38:08;;;;;;;7.53;6.93;;;15.10;41.90;;;;;;10393794;28;20868;-73
2023/05/16 04:43:12;;;;;;;6.97;6.37;;;15.00;41.60;;;;;;10391396;28;20716;-74
2023/05/16 04:48:17;;;;;;;7.23;6.70;;;15.00;41.70;;;;;;10404259;28;20312;-71
2023/05/16 04:53:21;;;;;;;8.17;7.47;;;15.00;41.90;;;;;;10398124;28;20267;-73
2023/05/16 04:58:24;;;;;;;7.47;6.87;;;15.00;41.60;;;;;;10397158;28;20233;-73
2023/05/16 05:03:29;;;;;;;8.43;7.50;;;14.90;41.60;;;;;;10404946;28;20240;-72
2023/05/16 05:08:32;;;;;;;7.90;7.10;;;14.90;42.00;;;;;;10400850;28;20225;-72
2023/05/16 05:13:35;;;;;;;7.73;7.00;;;14.90;41.90;;;;;;10405407;28;20241;-72
2023/05/16 05:18:41;;;;;;;7.70;7.10;;;14.90;42.00;;;;;;10395517;28;20828;-72
2023/05/16 05:23:44;;;;;;;8.20;7.40;;;14.90;42.20;;;;;;10399528;28;20225;-73
2023/05/16 05:28:49;;;;;;;8.03;7.33;;;14.90;42.10;;;;;;10391123;28;20222;-70
2023/05/16 05:34:08;;;;;;;7.10;6.50;;;14.90;42.30;;;;;;10397637;28;20218;-71
2023/05/16 05:39:11;;;;;;;8.20;7.60;;;14.90;42.60;;;;;;10398063;28;20225;-71
2023/05/16 05:44:14;;;;;;;8.13;7.43;;;15.00;42.60;;;;;;10402478;28;20233;-71
2023/05/16 05:49:19;;;;;;;8.13;7.43;;;15.00;42.60;;;;;;10404813;28;20573;-70
2023/05/16 05:54:23;;;;;;;7.87;7.17;;;15.10;42.90;;;;;;10400500;28;20249;-71
2023/05/16 05:59:27;;;;;;;8.07;7.43;;;15.20;42.60;;;;;;10402372;28;20229;-71
2023/05/16 06:04:31;;;;;;;7.97;7.37;;;15.30;42.80;;;;;;10399841;28;20233;-71
2023/05/16 06:09:35;;;;;;;6.33;5.67;;;15.30;42.90;;;;;;10403380;28;20312;-70
2023/05/16 06:14:38;;;;;;;7.20;6.67;;;15.40;42.60;;;;;;10402931;28;20217;-70
2023/05/16 06:19:42;;;;;;;7.87;7.27;;;15.40;42.50;;;;;;10410405;28;20236;-70
2023/05/16 06:24:45;;;;;;;8.23;7.63;;;15.50;42.80;;;;;;10409465;28;20233;-70
2023/05/16 06:29:48;;;;;;;8.50;7.83;;;15.50;42.60;;;;;;10410221;28;20225;-70
2023/05/16 06:34:53;;;;;;;7.17;6.67;;;15.60;42.60;;;;;;10408051;28;20217;-69
2023/05/16 06:39:56;;;;;;;8.37;7.77;;;15.60;43.40;;;;;;10405175;28;20748;-70
2023/05/16 06:44:59;;;;;;;8.53;7.83;;;15.70;43.40;;;;;;10406494;28;20319;-70
2023/05/16 06:50:05;;;;;;;7.37;6.70;;;15.70;42.70;;;;;;10409525;28;20278;-71
2023/05/16 06:55:09;;;;;;;6.23;5.83;;;15.70;42.80;;;;;;10397944;28;20327;-70
2023/05/16 07:00:13;;;;;;;6.80;6.30;;;15.80;42.60;;;;;;10404295;28;20225;-70
2023/05/16 07:05:18;;;;;;;6.83;6.23;;;15.80;42.60;;;;;;10407435;28;20257;-70
2023/05/16 07:10:21;;;;;;;7.10;6.60;;;15.80;42.60;;;;;;10403651;28;20259;-70
2023/05/16 07:15:25;;;;;;;6.77;6.33;;;15.90;42.60;;;;;;10402455;28;20225;-70
2023/05/16 07:20:30;;;;;;;7.43;6.80;;;15.90;42.50;;;;;;10401058;28;20240;-70
2023/05/16 07:25:33;;;;;;;7.17;6.67;;;15.90;42.90;;;;;;10405226;28;20230;-70
2023/05/16 07:30:37;;;;;;;7.17;6.43;;;15.90;42.50;;;;;;10409278;28;20316;-70
2023/05/16 07:35:41;;;;;;;7.50;6.90;;;15.90;42.50;;;;;;10406706;28;20830;-70
2023/05/16 07:40:44;;;;;;;7.27;6.57;;;15.90;42.70;;;;;;10400111;28;20221;-70
2023/05/16 07:45:48;;;;;;;7.57;6.97;;;15.90;42.70;;;;;;10412653;28;20229;-70
2023/05/16 07:50:54;;;;;;;6.97;6.40;;;15.90;42.70;;;;;;10403794;28;20979;-70
2023/05/16 07:55:57;;;;;;;6.87;6.37;;;16.00;43.20;;;;;;10407055;28;20217;-70
2023/05/16 08:01:02;;;;;;;6.80;6.30;;;16.10;43.00;;;;;;10409040;28;20728;-72
2023/05/16 08:06:07;;;;;;;6.60;6.10;;;16.10;43.00;;;;;;10408568;28;20320;-70
2023/05/16 08:11:10;;;;;;;6.77;6.13;;;16.30;43.10;;;;;;10408116;28;20237;-70
2023/05/16 08:16:13;;;;;;;6.80;6.30;;;16.30;42.90;;;;;;10406178;28;20773;-71
2023/05/16 08:21:18;;;;;;;6.70;6.20;;;16.40;42.80;;;;;;10404345;28;20725;-70
2023/05/16 08:26:21;;;;;;;6.60;6.10;;;16.50;42.90;;;;;;10406057;28;22624;-70
2023/05/16 08:31:25;;;;;;;7.30;6.60;;;16.60;42.80;;;;;;10405937;28;20235;-70
2023/05/16 08:36:34;;;;;;;7.33;6.73;;;16.60;42.70;;;;;;10403098;28;20713;-71
2023/05/16 08:41:37;;;;;;;6.63;6.13;;;16.70;42.90;;;;;;10396866;28;20257;-69
2023/05/16 08:46:42;;;;;;;6.40;5.90;;;16.80;42.60;;;;;;10398822;28;20220;-70
2023/05/16 08:51:48;;;;;;;6.87;6.27;;;16.80;42.50;;;;;;10403143;28;20233;-70
2023/05/16 08:56:52;;;;;;;7.40;6.80;;;16.90;42.40;;;;;;10400127;28;20233;-70
2023/05/16 09:01:57;;;;;;;6.80;6.30;;;17.00;42.70;;;;;;10393996;28;20233;-70
2023/05/16 09:07:01;;;;;;;7.00;6.50;;;17.00;42.50;;;;;;10400862;28;20235;-70
2023/05/16 09:12:05;;;;;;;7.27;6.77;;;17.00;42.70;;;;;;10405191;28;20713;-74
2023/05/16 09:17:09;;;;;;;8.43;7.63;;;17.00;42.80;;;;;;10400475;28;20228;-73
2023/05/16 09:22:16;;;;;;;7.77;7.17;;;17.10;42.90;;;;;;10402741;28;20252;-73
2023/05/16 09:27:19;;;;;;;7.03;6.43;;;17.10;42.90;;;;;;10403467;28;20230;-73
2023/05/16 09:32:24;;;;;;;7.80;7.20;;;17.20;42.80;;;;;;10399986;28;20593;-73
2023/05/16 09:37:30;;;;;;;8.20;7.60;;;17.20;43.00;;;;;;10403228;28;20229;-73
2023/05/16 09:42:34;;;;;;;7.40;6.90;;;17.20;43.10;;;;;;10398843;28;20244;-74
2023/05/16 09:47:44;;;;;;;7.83;7.23;;;17.30;43.20;;;;;;10398983;28;20237;-73
2023/05/16 09:52:54;;;;;;;7.00;6.50;;;17.40;43.20;;;;;;10399396;28;20229;-73
2023/05/16 09:57:57;;;;;;;8.27;7.57;;;17.40;43.40;;;;;;10394773;28;20230;-73
2023/05/16 10:03:02;;;;;;;7.27;6.77;;;17.40;43.20;;;;;;10393605;28;20220;-72
2023/05/16 10:08:10;;;;;;;7.93;7.23;;;17.60;44.30;;;;;;10408516;28;20312;-73
2023/05/16 10:13:14;;;;;;;7.63;6.93;;;17.70;43.80;;;;;;10398587;28;20218;-73
2023/05/16 10:18:18;;;;;;;7.20;6.67;;;17.80;43.70;;;;;;10401195;28;20992;-74
2023/05/16 10:23:26;;;;;;;7.80;7.20;;;17.90;43.80;;;;;;10399747;28;21485;-74
2023/05/16 10:28:29;;;;;;;8.50;7.47;;;18.00;44.30;;;;;;10401044;28;20983;-74
2023/05/16 10:33:33;;;;;;;7.17;6.67;;;18.10;43.00;;;;;;10398616;28;20312;-73
2023/05/16 10:38:38;;;;;;;8.17;7.57;;;18.20;43.10;;;;;;10398518;28;21186;-74
2023/05/16 10:43:45;;;;;;;8.37;7.50;;;18.30;43.00;;;;;;10399620;28;20226;-74
2023/05/16 10:48:48;;;;;;;6.87;6.37;;;18.40;42.40;;;;;;10394404;28;20257;-73
2023/05/16 10:53:55;;;;;;;7.77;7.17;;;18.40;42.60;;;;;;10401019;28;20312;-73
2023/05/16 10:59:03;;;;;;;9.03;8.33;;;18.50;42.80;;;;;;10397473;28;20225;-73
2023/05/16 11:04:09;;;;;;;8.50;7.90;;;18.50;42.60;;;;;;10409103;28;20441;-73
2023/05/16 11:09:33;;;;;;;8.27;7.57;;;18.60;42.40;;;;;;10409171;28;20764;-73
2023/05/16 11:14:38;;;;;;;8.33;7.63;;;18.80;42.20;;;;;;10408249;28;20236;-73
2023/05/16 11:19:43;;;;;;;7.90;7.30;;;18.90;42.30;;;;;;10407154;28;20690;-73
2023/05/16 11:24:57;;;;;;;8.13;7.33;;;19.00;42.10;;;;;;10407114;28;20598;-73
2023/05/16 11:30:10;;;;;;;8.23;7.60;;;19.10;42.50;;;;;;10404250;28;20225;-73
2023/05/16 11:35:16;;;;;;;6.17;5.67;;;19.30;42.20;;;;;;10401772;28;20299;-73
2023/05/16 11:40:21;;;;;;;5.63;5.13;;;19.30;40.40;;;;;;10397900;28;20265;-73
2023/05/16 11:45:24;;;;;;;5.40;5.00;;;19.20;39.00;;;;;;10404061;28;20230;-73
2023/05/16 11:50:28;;;;;;;5.83;5.40;;;19.10;39.70;;;;;;10407235;28;20339;-74
2023/05/16 11:55:33;;;;;;;6.13;5.63;;;18.90;40.20;;;;;;10404515;28;20230;-73
2023/05/16 12:00:49;;;;;;;5.77;5.27;;;18.80;40.30;;;;;;10399407;28;20228;-73
2023/05/16 12:05:55;;;;;;;5.77;5.33;;;18.60;40.20;;;;;;10408184;28;20308;-74
2023/05/16 12:11:00;;;;;;;5.67;5.17;;;18.50;40.30;;;;;;10405221;28;20229;-74
2023/05/16 12:16:04;;;;;;;6.23;5.63;;;18.20;40.50;;;;;;10409103;28;20230;-73
2023/05/16 12:21:07;;;;;;;5.50;5.00;;;18.00;40.20;;;;;;10401814;28;20232;-74
2023/05/16 12:26:13;;;;;;;5.90;5.40;;;17.70;40.60;;;;;;10397605;28;20548;-74
2023/05/16 12:31:19;;;;;;;5.27;4.87;;;17.50;41.40;;;;;;10401574;28;20283;-74
2023/05/16 12:36:35;;;;;;;5.07;4.73;;;17.30;41.60;;;;;;10395152;28;20330;-74
2023/05/16 12:41:42;;;;;;;5.23;4.63;;;17.20;41.70;;;;;;10402690;28;20230;-74
2023/05/16 12:46:48;;;;;;;4.50;4.20;;;17.10;41.90;;;;;;10403652;28;20225;-73
2023/05/16 12:51:53;;;;;;;4.83;4.53;;;17.00;41.80;;;;;;10401635;28;20239;-72
2023/05/16 12:56:58;;;;;;;5.17;4.77;;;16.90;41.60;;;;;;10403250;28;20209;-72
2023/05/16 13:02:02;;;;;;;4.87;4.57;;;16.90;41.80;;;;;;10399066;28;20224;-71
2023/05/16 13:07:06;;;;;;;5.40;5.00;;;16.90;41.70;;;;;;10394890;28;20690;-72
2023/05/16 13:12:12;;;;;;;4.20;3.90;;;16.80;41.90;;;;;;10404784;28;20223;-72
2023/05/16 13:17:16;;;;;;;4.80;4.50;;;16.80;41.70;;;;;;10400669;28;20213;-73
2023/05/16 13:22:19;;;;;;;4.73;4.37;;;16.70;41.40;;;;;;10403504;28;20220;-73
2023/05/16 13:27:24;;;;;;;6.93;4.30;;;16.70;41.60;;;;;;10403484;28;20243;-72
2023/05/16 13:32:29;;;;;;;5.27;4.87;;;16.50;42.20;;;;;;10400760;28;20241;-72
2023/05/16 13:37:33;;;;;;;5.27;4.87;;;16.50;42.30;;;;;;10403554;28;20230;-73
2023/05/16 13:42:38;;;;;;;6.10;5.50;;;16.40;42.30;;;;;;10398209;28;20638;-71
2023/05/16 13:47:41;;;;;;;5.60;5.03;;;16.40;44.10;;;;;;10405547;28;20252;-74
2023/05/16 13:52:46;;;;;;;5.30;4.90;;;16.50;43.30;;;;;;10401162;28;20881;-73
2023/05/16 13:57:50;;;;;;;6.20;5.80;;;16.50;43.30;;;;;;10402295;28;20222;-74
2023/05/16 14:02:57;;;;;;;5.70;5.30;;;16.60;43.80;;;;;;10398378;28;20221;-74
2023/05/16 14:08:01;;;;;;;5.90;5.50;;;16.60;43.90;;;;;;10405424;28;20256;-74
2023/05/16 14:13:06;;;;;;;6.07;5.60;;;16.70;43.40;;;;;;10428431;28;20229;-73
2023/05/16 14:18:09;;;;;;;6.60;6.20;;;16.70;43.80;;;;;;10424197;28;20232;-74
2023/05/16 14:23:18;;;;;;;6.47;5.87;;;16.80;43.60;;;;;;10436475;28;20564;-73
2023/05/16 14:28:23;;;;;;;6.77;6.27;;;16.80;43.70;;;;;;10441266;28;20240;-74
2023/05/16 14:33:26;;;;;;;7.93;7.33;;;16.80;44.40;;;;;;10439635;28;20234;-74
2023/05/16 14:38:30;;;;;;;7.10;6.50;;;16.80;43.90;;;;;;10451755;28;20233;-74
2023/05/16 14:43:34;;;;;;;6.77;6.30;;;16.90;43.90;;;;;;10446552;28;20233;-74
2023/05/16 14:48:38;;;;;;;7.07;6.57;;;16.90;44.00;;;;;;10449386;28;20239;-74
2023/05/16 14:53:41;;;;;;;6.60;6.10;;;16.90;43.70;;;;;;10449021;28;20232;-74
2023/05/16 14:58:50;;;;;;;6.70;6.20;;;16.90;43.40;;;;;;10443941;28;20220;-74
2023/05/16 15:03:53;;;;;;;6.57;6.07;;;16.90;43.80;;;;;;10448916;28;20243;-74
2023/05/16 15:08:58;;;;;;;6.07;5.67;;;16.90;43.60;;;;;;10450016;28;20340;-74
2023/05/16 15:14:03;;;;;;;5.70;5.20;;;16.90;43.90;;;;;;10446994;28;20233;-80
2023/05/16 15:19:06;;;;;;;6.27;5.83;;;16.90;44.20;;;;;;10442164;28;20217;-81
2023/05/16 15:24:11;;;;;;;5.80;5.40;;;17.00;44.00;;;;;;10440920;28;20224;-82
2023/05/16 15:29:16;;;;;;;6.20;5.80;;;17.10;43.80;;;;;;10441549;28;20237;-81
2023/05/16 15:34:19;;;;;;;6.20;5.70;;;17.10;43.70;;;;;;10438407;28;20316;-81
2023/05/16 15:39:24;;;;;;;6.67;6.07;;;17.20;43.80;;;;;;10441463;28;20307;-73
2023/05/16 15:44:29;;;;;;;6.87;6.37;;;17.10;43.60;;;;;;10443522;28;20874;-79
2023/05/16 15:49:32;;;;;;;6.60;6.10;;;17.20;43.90;;;;;;10438930;28;20637;-79
2023/05/16 15:54:36;;;;;;;7.57;7.03;;;17.30;43.80;;;;;;10437169;28;20379;-80
2023/05/16 15:59:44;;;;;;;7.00;6.50;;;17.20;43.80;;;;;;10425994;28;20231;-80
2023/05/16 16:04:48;;;;;;;7.37;6.77;;;17.30;44.60;;;;;;10441285;28;20221;-81
2023/05/16 16:09:51;;;;;;;6.97;6.20;;;17.40;45.00;;;;;;10443592;28;20727;-80
2023/05/16 16:15:01;;;;;;;7.63;6.97;;;17.40;44.10;;;;;;10440592;28;20225;-79
2023/05/16 16:20:11;;;;;;;8.57;7.87;;;17.40;44.00;;;;;;10396766;28;20221;-78
2023/05/16 16:25:15;;;;;;;8.70;8.00;;;17.40;43.40;;;;;;10397392;28;20230;-78
2023/05/16 16:30:19;;;;;;;8.27;7.57;;;17.40;43.20;;;;;;10399718;28;20255;-79
2023/05/16 16:35:24;;;;;;;9.00;8.23;;;17.40;43.20;;;;;;10407564;28;20662;-79
2023/05/16 16:40:29;;;;;;;8.73;7.93;;;17.40;43.30;;;;;;10401060;28;20237;-78
2023/05/16 16:45:34;;;;;;;7.87;7.27;;;17.40;43.40;;;;;;10404669;28;20253;-79
2023/05/16 16:50:37;;;;;;;9.37;8.67;;;17.40;43.50;;;;;;10398678;28;20685;-79
2023/05/16 16:55:40;;;;;;;9.27;8.47;;;17.40;43.30;;;;;;10402225;28;20218;-79
2023/05/16 17:00:45;;;;;;;8.80;7.93;;;17.40;43.40;;;;;;10401021;28;20291;-79
2023/05/16 17:05:48;;;;;;;8.10;7.47;;;17.40;43.40;;;;;;10396325;28;20225;-79
2023/05/16 17:10:52;;;;;;;8.20;7.50;;;17.50;43.20;;;;;;10400819;28;20874;-78
2023/05/16 17:16:00;;;;;;;6.90;6.40;;;17.40;42.90;;;;;;10389803;28;20325;-78
2023/05/16 17:21:04;;;;;;;5.43;5.03;;;17.40;43.20;;;;;;10438649;28;20298;-77
2023/05/16 17:26:08;;;;;;;4.90;4.50;;;17.40;42.30;;;;;;10435758;28;20239;-78
2023/05/16 17:31:13;;;;;;;4.57;4.17;;;17.30;41.90;;;;;;10439423;28;20243;-78
2023/05/16 17:36:16;;;;;;;5.47;4.47;;;17.20;41.50;;;;;;10435673;28;20226;-78
2023/05/16 17:41:20;;;;;;;4.50;4.20;;;17.20;41.60;;;;;;10439844;28;20350;-78
2023/05/16 17:46:25;;;;;;;4.23;3.93;;;17.10;41.50;;;;;;10437785;28;20232;-78
2023/05/16 17:51:29;;;;;;;4.50;4.10;;;17.00;41.50;;;;;;10434438;28;20287;-78
2023/05/16 17:56:33;;;;;;;4.30;4.00;;;16.90;42.20;;;;;;10441535;28;20252;-78
2023/05/16 18:01:38;;;;;;;4.20;3.90;;;16.80;41.10;;;;;;10440599;28;20348;-77
2023/05/16 18:06:42;;;;;;;4.00;3.60;;;16.70;40.70;;;;;;10444292;28;20243;-78
2023/05/16 18:11:50;;;;;;;4.20;3.90;;;16.50;40.80;;;;;;10435142;28;20245;-78
2023/05/16 18:16:55;;;;;;;3.80;3.50;;;16.30;40.30;;;;;;10441326;28;20259;-78
2023/05/16 18:21:59;;;;;;;4.50;4.10;;;16.30;40.50;;;;;;10438197;28;20221;-78
2023/05/16 18:27:03;;;;;;;4.43;4.03;;;16.20;40.50;;;;;;10427983;28;20227;-77
2023/05/16 18:32:09;;;;;;;4.27;3.90;;;16.10;40.70;;;;;;10436349;28;20220;-78
2023/05/16 18:37:12;;;;;;;4.07;3.63;;;16.00;40.50;;;;;;10438060;28;20231;-78
2023/05/16 18:42:18;;;;;;;3.73;3.43;;;15.90;40.80;;;;;;10439069;28;20221;-78
2023/05/16 18:47:29;;;;;;;3.40;3.20;;;15.80;40.70;;;;;;10438219;28;20233;-79
2023/05/16 18:52:34;;;;;;;3.93;3.67;;;15.80;40.30;;;;;;10441959;28;20259;-78
2023/05/16 18:57:40;;;;;;;3.60;3.30;;;15.80;40.80;;;;;;10441269;28;20231;-78
2023/05/16 19:02:46;;;;;;;3.80;3.50;;;15.70;40.50;;;;;;10435963;28;20239;-78
2023/05/16 19:07:56;;;;;;;3.90;3.60;;;15.70;40.60;;;;;;10441325;28;20229;-78
2023/05/16 19:13:05;;;;;;;4.80;3.80;;;15.70;40.60;;;;;;10444262;28;20222;-79
2023/05/16 19:18:10;;;;;;;3.53;3.33;;;15.60;40.80;;;;;;10411051;28;20603;-78
2023/05/16 19:23:14;;;;;;;4.60;3.47;;;15.60;40.70;;;;;;10402969;28;20709;-79
2023/05/16 19:28:17;;;;;;;3.50;3.30;;;15.50;40.70;;;;;;10399349;28;20225;-78
2023/05/16 19:33:22;;;;;;;3.30;3.10;;;15.40;40.60;;;;;;10399451;28;20317;-79
2023/05/16 19:38:27;;;;;;;3.10;2.80;;;15.30;40.60;;;;;;10405696;28;20701;-80
2023/05/16 19:43:33;;;;;;;2.80;2.60;;;15.30;40.60;;;;;;10398891;28;20244;-78
2023/05/16 19:48:53;;;;;;;2.43;2.30;;;15.20;40.70;;;;;;10415889;28;20591;-79
2023/05/16 19:53:57;;;;;;;2.23;2.13;;;15.20;40.40;;;;;;10406607;28;20230;-78
2023/05/16 19:59:00;;;;;;;2.20;1.90;;;15.10;40.50;;;;;;10405340;28;20224;-78
2023/05/16 20:04:05;;;;;;;2.10;2.00;;;15.10;40.40;;;;;;10414180;28;20218;-77
2023/05/16 20:09:10;;;;;;;1.83;1.73;;;15.10;40.40;;;;;;10403175;28;20229;-75
2023/05/16 20:14:17;;;;;;;2.57;2.00;;;15.00;40.30;;;;;;10402499;28;20288;-76
2023/05/16 20:19:23;;;;;;;2.00;1.87;;;15.00;40.10;;;;;;10402842;28;20217;-77
2023/05/16 20:24:31;;;;;;;1.97;1.83;;;15.00;40.30;;;;;;10355809;28;20221;-75
2023/05/16 20:29:40;;;;;;;2.13;1.80;;;15.00;40.00;;;;;;10372374;28;20242;-73
2023/05/16 20:35:36;;;;;;;1.87;1.70;;;14.90;39.70;;;;;;10373614;28;20229;-76
2023/05/16 20:41:51;;;;;;;2.53;1.87;;;14.90;39.70;;;;;;10396262;28;20267;-73
2023/05/16 20:47:01;;;;;;;1.80;1.70;;;14.90;39.80;;;;;;10377350;28;20315;-74
2023/05/16 20:52:05;;;;;;;2.70;1.60;;;14.80;39.80;;;;;;10441847;28;20246;-75
2023/05/16 20:57:10;;;;;;;1.63;1.53;;;14.80;40.00;;;;;;10437802;28;20217;-74
2023/05/16 21:02:14;;;;;;;2.10;1.57;;;14.80;40.00;;;;;;10439651;28;20235;-73
2023/05/16 21:07:19;;;;;;;2.73;1.70;;;14.70;39.90;;;;;;10439026;28;20302;-76
2023/05/16 21:12:23;;;;;;;2.93;1.73;;;14.70;40.60;;;;;;10450838;28;20424;-78
2023/05/16 21:17:27;;;;;;;2.23;1.50;;;14.70;39.70;;;;;;10463183;28;20246;-77
2023/05/16 21:22:30;;;;;;;2.83;1.70;;;14.70;39.70;;;;;;10448898;28;20244;-77
2023/05/16 21:27:37;;;;;;;2.97;2.00;;;14.70;40.00;;;;;;10446711;28;20283;-77
2023/05/16 21:32:44;;;;;;;2.20;1.70;;;14.70;39.50;;;;;;10448640;28;20229;-77
2023/05/16 21:37:48;;;;;;;3.60;1.87;;;14.60;39.70;;;;;;10451407;28;20221;-77
2023/05/16 21:43:17;;;;;;;3.33;1.90;;;14.60;39.50;;;;;;10442846;28;20229;-76
2023/05/16 21:48:21;;;;;;;1.90;1.70;;;14.60;39.00;;;;;;10454349;28;20232;-77
2023/05/16 21:53:24;;;;;;;2.37;1.90;;;14.60;39.50;;;;;;10453460;28;20243;-77
2023/05/16 21:58:29;;;;;;;2.67;2.00;;;14.50;39.50;;;;;;10452713;28;20855;-77
2023/05/16 22:03:36;;;;;;;2.33;1.60;;;14.50;39.20;;;;;;10454224;28;20232;-77
2023/05/16 22:08:43;;;;;;;2.67;1.70;;;14.40;38.80;;;;;;10452586;28;20229;-77
2023/05/16 22:13:48;;;;;;;3.80;1.80;;;14.40;39.10;;;;;;10455079;28;20275;-77
2023/05/16 22:18:53;;;;;;;3.63;2.00;;;14.40;38.90;;;;;;10430028;28;20772;-77
2023/05/16 22:23:57;;;;;;;2.63;1.67;;;14.30;38.90;;;;;;10441576;28;20228;-77
2023/05/16 22:29:02;;;;;;;4.10;1.73;;;14.30;38.80;;;;;;10449566;28;20236;-77
2023/05/16 22:34:06;;;;;;;4.63;1.60;;;14.30;38.70;;;;;;10448836;28;20228;-77
2023/05/16 22:39:10;;;;;;;3.20;1.70;;;14.30;38.90;;;;;;10441527;28;21063;-77
2023/05/16 22:44:15;;;;;;;2.67;1.70;;;14.20;38.90;;;;;;10432684;28;20229;-77
2023/05/16 22:49:19;;;;;;;2.03;1.70;;;14.20;38.80;;;;;;10429667;28;20279;-77
2023/05/16 22:54:22;;;;;;;3.37;1.83;;;14.20;38.70;;;;;;10438054;28;20306;-77
2023/05/16 22:59:27;;;;;;;2.23;1.70;;;14.20;38.70;;;;;;10436515;28;20291;-76
2023/05/16 23:04:30;;;;;;;4.83;1.97;;;14.10;38.20;;;;;;10443084;28;20282;-77
2023/05/16 23:09:34;;;;;;;2.60;1.67;;;14.10;38.70;;;;;;10440350;28;20233;-77
2023/05/16 23:14:39;;;;;;;3.47;1.80;;;14.10;38.70;;;;;;10443111;28;20225;-77
2023/05/16 23:19:43;;;;;;;3.07;1.50;;;14.00;38.50;;;;;;10440005;28;20232;-78
2023/05/16 23:24:50;;;;;;;4.07;1.57;;;14.00;38.50;;;;;;10445417;28;20695;-77
2023/05/16 23:30:15;;;;;;;3.30;1.67;;;13.90;38.60;;;;;;10417406;28;20232;-74
2023/05/16 23:35:19;;;;;;;4.27;1.80;;;13.90;38.40;;;;;;10442395;28;20278;-78
2023/05/16 23:40:22;;;;;;;1.80;1.40;;;13.80;38.60;;;;;;10458298;28;20241;-77
2023/05/16 23:45:32;;;;;;;2.60;1.43;;;13.80;38.70;;;;;;10468092;28;20237;-77
2023/05/16 23:50:36;;;;;;;4.67;1.90;;;13.80;38.10;;;;;;10443141;28;21164;-77
2023/05/16 23:55:39;;;;;;;2.97;1.60;;;13.70;38.20;;;;;;10453825;28;20763;-76
